sensor_id;sensor_type;location;lat;lon;timestamp;P1;durP1;ratioP1;P2;durP2;ratioP2
12425;SDS011;6277;49.824;9.562;2023-02-26T00:02:15;4.50;;;1.45;;
12425;SDS011;6277;49.824;9.562;2023-02-26T00:04:41;3.40;;;1.17;;
12425;SDS011;6277;49.824;9.562;2023-02-26T00:07:06;1.58;;;0.93;;
12425;SDS011;6277;49.824;9.562;2023-02-26T00:09:32;2.00;;;1.10;;
12425;SDS011;6277;49.824;9.562;2023-02-26T00:11:58;2.40;;;0.98;;
12425;SDS011;6277;49.824;9.562;2023-02-26T00:14:24;1.83;;;0.88;;
12425;SDS011;6277;49.824;9.562;2023-02-26T00:16:54;1.50;;;0.88;;
12425;SDS011;6277;49.824;9.562;2023-02-26T00:19:28;1.92;;;0.77;;
12425;SDS011;6277;49.824;9.562;2023-02-26T00:21:54;1.20;;;0.80;;
12425;SDS011;6277;49.824;9.562;2023-02-26T00:24:19;2.55;;;1.10;;
12425;SDS011;6277;49.824;9.562;2023-02-26T00:26:45;1.30;;;0.70;;
12425;SDS011;6277;49.824;9.562;2023-02-26T00:29:10;1.77;;;0.63;;
12425;SDS011;6277;49.824;9.562;2023-02-26T00:31:36;2.42;;;0.85;;
12425;SDS011;6277;49.824;9.562;2023-02-26T00:34:02;1.65;;;0.80;;
12425;SDS011;6277;49.824;9.562;2023-02-26T00:41:59;1.35;;;0.68;;
12425;SDS011;6277;49.824;9.562;2023-02-26T00:44:25;2.08;;;0.90;;
12425;SDS011;6277;49.824;9.562;2023-02-26T00:46:53;2.22;;;0.95;;
12425;SDS011;6277;49.824;9.562;2023-02-26T00:52:18;2.03;;;0.70;;
12425;SDS011;6277;49.824;9.562;2023-02-26T00:54:51;2.47;;;0.77;;
12425;SDS011;6277;49.824;9.562;2023-02-26T00:57:16;1.73;;;0.98;;
12425;SDS011;6277;49.824;9.562;2023-02-26T00:59:42;3.53;;;1.08;;
12425;SDS011;6277;49.824;9.562;2023-02-26T01:02:07;1.25;;;0.77;;
12425;SDS011;6277;49.824;9.562;2023-02-26T01:04:33;2.05;;;1.10;;
12425;SDS011;6277;49.824;9.562;2023-02-26T01:06:59;1.25;;;0.75;;
12425;SDS011;6277;49.824;9.562;2023-02-26T01:09:35;2.10;;;0.73;;
12425;SDS011;6277;49.824;9.562;2023-02-26T01:12:08;2.13;;;0.82;;
12425;SDS011;6277;49.824;9.562;2023-02-26T01:14:36;1.77;;;0.77;;
12425;SDS011;6277;49.824;9.562;2023-02-26T01:17:07;1.73;;;0.63;;
12425;SDS011;6277;49.824;9.562;2023-02-26T01:19:47;2.75;;;0.77;;
12425;SDS011;6277;49.824;9.562;2023-02-26T01:22:24;3.33;;;0.80;;
12425;SDS011;6277;49.824;9.562;2023-02-26T01:25:04;2.85;;;0.75;;
12425;SDS011;6277;49.824;9.562;2023-02-26T01:27:35;2.13;;;0.80;;
12425;SDS011;6277;49.824;9.562;2023-02-26T01:30:02;0.73;;;0.50;;
12425;SDS011;6277;49.824;9.562;2023-02-26T01:32:41;2.10;;;0.80;;
12425;SDS011;6277;49.824;9.562;2023-02-26T01:36:10;0.95;;;0.52;;
12425;SDS011;6277;49.824;9.562;2023-02-26T01:44:29;2.05;;;0.82;;
12425;SDS011;6277;49.824;9.562;2023-02-26T01:49:43;1.77;;;0.82;;
12425;SDS011;6277;49.824;9.562;2023-02-26T01:55:13;3.38;;;0.93;;
12425;SDS011;6277;49.824;9.562;2023-02-26T01:57:46;2.10;;;0.90;;
12425;SDS011;6277;49.824;9.562;2023-02-26T02:00:12;0.80;;;0.65;;
12425;SDS011;6277;49.824;9.562;2023-02-26T02:02:39;3.40;;;0.98;;
12425;SDS011;6277;49.824;9.562;2023-02-26T02:05:13;3.67;;;0.90;;
12425;SDS011;6277;49.824;9.562;2023-02-26T02:07:46;1.63;;;0.90;;
12425;SDS011;6277;49.824;9.562;2023-02-26T02:10:11;2.22;;;0.90;;
12425;SDS011;6277;49.824;9.562;2023-02-26T02:12:40;2.30;;;0.85;;
12425;SDS011;6277;49.824;9.562;2023-02-26T02:23:35;1.58;;;0.98;;
12425;SDS011;6277;49.824;9.562;2023-02-26T02:26:16;2.78;;;1.08;;
12425;SDS011;6277;49.824;9.562;2023-02-26T02:34:14;3.65;;;0.93;;
12425;SDS011;6277;49.824;9.562;2023-02-26T02:36:56;2.60;;;0.90;;
12425;SDS011;6277;49.824;9.562;2023-02-26T02:39:31;2.38;;;0.80;;
12425;SDS011;6277;49.824;9.562;2023-02-26T02:42:08;1.67;;;0.77;;
12425;SDS011;6277;49.824;9.562;2023-02-26T02:44:48;2.08;;;0.65;;
12425;SDS011;6277;49.824;9.562;2023-02-26T02:47:19;2.80;;;0.70;;
12425;SDS011;6277;49.824;9.562;2023-02-26T02:49:46;2.13;;;0.80;;
12425;SDS011;6277;49.824;9.562;2023-02-26T02:52:43;1.70;;;0.90;;
12425;SDS011;6277;49.824;9.562;2023-02-26T02:55:46;2.38;;;0.90;;
12425;SDS011;6277;49.824;9.562;2023-02-26T02:58:17;2.13;;;0.70;;
12425;SDS011;6277;49.824;9.562;2023-02-26T03:00:47;2.20;;;0.70;;
12425;SDS011;6277;49.824;9.562;2023-02-26T03:03:18;1.52;;;0.68;;
12425;SDS011;6277;49.824;9.562;2023-02-26T03:05:50;2.75;;;1.15;;
12425;SDS011;6277;49.824;9.562;2023-02-26T03:08:16;1.60;;;0.65;;
12425;SDS011;6277;49.824;9.562;2023-02-26T03:10:46;2.33;;;0.90;;
12425;SDS011;6277;49.824;9.562;2023-02-26T03:13:19;3.00;;;0.80;;
12425;SDS011;6277;49.824;9.562;2023-02-26T03:15:52;2.63;;;1.00;;
12425;SDS011;6277;49.824;9.562;2023-02-26T03:18:44;1.98;;;0.88;;
12425;SDS011;6277;49.824;9.562;2023-02-26T03:24:08;3.72;;;1.00;;
12425;SDS011;6277;49.824;9.562;2023-02-26T03:26:51;1.73;;;0.73;;
12425;SDS011;6277;49.824;9.562;2023-02-26T03:31:58;2.53;;;0.70;;
12425;SDS011;6277;49.824;9.562;2023-02-26T03:34:29;2.75;;;0.90;;
12425;SDS011;6277;49.824;9.562;2023-02-26T03:37:07;3.20;;;0.90;;
12425;SDS011;6277;49.824;9.562;2023-02-26T03:39:50;1.80;;;0.60;;
12425;SDS011;6277;49.824;9.562;2023-02-26T03:42:23;4.63;;;1.17;;
12425;SDS011;6277;49.824;9.562;2023-02-26T03:45:03;2.70;;;0.90;;
12425;SDS011;6277;49.824;9.562;2023-02-26T03:47:34;1.33;;;0.70;;
12425;SDS011;6277;49.824;9.562;2023-02-26T03:50:02;2.00;;;0.70;;
12425;SDS011;6277;49.824;9.562;2023-02-26T03:52:36;1.30;;;0.68;;
12425;SDS011;6277;49.824;9.562;2023-02-26T03:55:10;2.60;;;0.70;;
12425;SDS011;6277;49.824;9.562;2023-02-26T03:57:40;3.67;;;1.00;;
12425;SDS011;6277;49.824;9.562;2023-02-26T04:00:08;1.52;;;0.90;;
12425;SDS011;6277;49.824;9.562;2023-02-26T04:05:19;2.03;;;0.80;;
12425;SDS011;6277;49.824;9.562;2023-02-26T04:07:51;2.63;;;0.80;;
12425;SDS011;6277;49.824;9.562;2023-02-26T04:10:18;2.25;;;0.85;;
12425;SDS011;6277;49.824;9.562;2023-02-26T04:12:49;3.10;;;0.88;;
12425;SDS011;6277;49.824;9.562;2023-02-26T04:15:14;4.90;;;1.13;;
12425;SDS011;6277;49.824;9.562;2023-02-26T04:17:40;1.05;;;0.60;;
12425;SDS011;6277;49.824;9.562;2023-02-26T04:20:05;3.00;;;0.85;;
12425;SDS011;6277;49.824;9.562;2023-02-26T04:22:35;3.05;;;1.05;;
12425;SDS011;6277;49.824;9.562;2023-02-26T04:25:01;4.25;;;0.73;;
12425;SDS011;6277;49.824;9.562;2023-02-26T04:27:27;4.53;;;0.75;;
12425;SDS011;6277;49.824;9.562;2023-02-26T04:29:52;2.85;;;0.80;;
12425;SDS011;6277;49.824;9.562;2023-02-26T04:32:18;3.10;;;0.85;;
12425;SDS011;6277;49.824;9.562;2023-02-26T04:34:43;2.05;;;1.00;;
12425;SDS011;6277;49.824;9.562;2023-02-26T04:37:09;3.67;;;0.93;;
12425;SDS011;6277;49.824;9.562;2023-02-26T04:39:35;2.03;;;0.68;;
12425;SDS011;6277;49.824;9.562;2023-02-26T04:42:00;2.03;;;0.73;;
12425;SDS011;6277;49.824;9.562;2023-02-26T04:44:28;1.55;;;0.70;;
12425;SDS011;6277;49.824;9.562;2023-02-26T04:46:54;4.68;;;0.80;;
12425;SDS011;6277;49.824;9.562;2023-02-26T04:49:20;3.47;;;0.98;;
12425;SDS011;6277;49.824;9.562;2023-02-26T04:51:45;1.23;;;0.80;;
12425;SDS011;6277;49.824;9.562;2023-02-26T04:54:11;2.95;;;0.75;;
12425;SDS011;6277;49.824;9.562;2023-02-26T04:56:36;1.75;;;0.73;;
12425;SDS011;6277;49.824;9.562;2023-02-26T04:59:02;2.50;;;0.85;;
12425;SDS011;6277;49.824;9.562;2023-02-26T05:01:27;2.20;;;0.70;;
12425;SDS011;6277;49.824;9.562;2023-02-26T05:03:55;1.77;;;0.60;;
12425;SDS011;6277;49.824;9.562;2023-02-26T05:06:20;1.92;;;0.65;;
12425;SDS011;6277;49.824;9.562;2023-02-26T05:08:46;0.65;;;0.55;;
12425;SDS011;6277;49.824;9.562;2023-02-26T05:11:11;2.05;;;0.80;;
12425;SDS011;6277;49.824;9.562;2023-02-26T05:13:37;2.50;;;0.70;;
12425;SDS011;6277;49.824;9.562;2023-02-26T05:16:03;3.80;;;0.60;;
12425;SDS011;6277;49.824;9.562;2023-02-26T05:18:29;1.98;;;0.90;;
12425;SDS011;6277;49.824;9.562;2023-02-26T05:20:56;2.00;;;0.52;;
12425;SDS011;6277;49.824;9.562;2023-02-26T05:23:22;1.00;;;0.70;;
12425;SDS011;6277;49.824;9.562;2023-02-26T05:25:47;1.40;;;0.52;;
12425;SDS011;6277;49.824;9.562;2023-02-26T05:28:13;1.65;;;0.73;;
12425;SDS011;6277;49.824;9.562;2023-02-26T05:30:39;1.27;;;0.65;;
12425;SDS011;6277;49.824;9.562;2023-02-26T05:33:05;1.92;;;0.70;;
12425;SDS011;6277;49.824;9.562;2023-02-26T05:35:31;3.55;;;0.98;;
12425;SDS011;6277;49.824;9.562;2023-02-26T05:37:57;1.42;;;0.52;;
12425;SDS011;6277;49.824;9.562;2023-02-26T05:40:22;1.42;;;0.68;;
12425;SDS011;6277;49.824;9.562;2023-02-26T05:42:48;2.83;;;0.70;;
12425;SDS011;6277;49.824;9.562;2023-02-26T05:45:14;1.88;;;0.60;;
12425;SDS011;6277;49.824;9.562;2023-02-26T05:47:39;2.85;;;0.75;;
12425;SDS011;6277;49.824;9.562;2023-02-26T05:50:05;2.33;;;0.60;;
12425;SDS011;6277;49.824;9.562;2023-02-26T05:52:31;1.08;;;0.70;;
12425;SDS011;6277;49.824;9.562;2023-02-26T05:54:57;1.55;;;0.60;;
12425;SDS011;6277;49.824;9.562;2023-02-26T05:57:23;3.22;;;0.95;;
12425;SDS011;6277;49.824;9.562;2023-02-26T05:59:49;1.42;;;0.80;;
12425;SDS011;6277;49.824;9.562;2023-02-26T06:02:15;2.03;;;1.23;;
12425;SDS011;6277;49.824;9.562;2023-02-26T06:04:40;3.05;;;0.85;;
12425;SDS011;6277;49.824;9.562;2023-02-26T06:07:06;3.20;;;0.80;;
12425;SDS011;6277;49.824;9.562;2023-02-26T06:09:31;4.45;;;1.08;;
12425;SDS011;6277;49.824;9.562;2023-02-26T06:11:57;2.55;;;0.90;;
12425;SDS011;6277;49.824;9.562;2023-02-26T06:14:22;2.95;;;1.40;;
12425;SDS011;6277;49.824;9.562;2023-02-26T06:16:48;6.72;;;3.15;;
12425;SDS011;6277;49.824;9.562;2023-02-26T06:19:14;6.20;;;2.50;;
12425;SDS011;6277;49.824;9.562;2023-02-26T06:21:39;4.78;;;1.80;;
12425;SDS011;6277;49.824;9.562;2023-02-26T06:24:05;4.55;;;2.38;;
12425;SDS011;6277;49.824;9.562;2023-02-26T06:26:31;5.85;;;2.10;;
12425;SDS011;6277;49.824;9.562;2023-02-26T06:28:56;3.95;;;1.90;;
12425;SDS011;6277;49.824;9.562;2023-02-26T06:31:22;3.22;;;1.40;;
12425;SDS011;6277;49.824;9.562;2023-02-26T06:33:48;3.42;;;1.52;;
12425;SDS011;6277;49.824;9.562;2023-02-26T06:36:13;4.22;;;1.80;;
12425;SDS011;6277;49.824;9.562;2023-02-26T06:38:39;4.50;;;1.48;;
12425;SDS011;6277;49.824;9.562;2023-02-26T06:41:04;3.22;;;1.30;;
12425;SDS011;6277;49.824;9.562;2023-02-26T06:43:30;3.30;;;1.58;;
12425;SDS011;6277;49.824;9.562;2023-02-26T06:45:56;3.03;;;1.17;;
12425;SDS011;6277;49.824;9.562;2023-02-26T06:48:22;2.65;;;1.23;;
12425;SDS011;6277;49.824;9.562;2023-02-26T06:50:49;1.70;;;0.80;;
12425;SDS011;6277;49.824;9.562;2023-02-26T06:53:14;1.58;;;0.70;;
12425;SDS011;6277;49.824;9.562;2023-02-26T06:55:43;2.42;;;0.80;;
12425;SDS011;6277;49.824;9.562;2023-02-26T06:58:10;1.70;;;0.73;;
12425;SDS011;6277;49.824;9.562;2023-02-26T07:00:35;3.25;;;0.70;;
12425;SDS011;6277;49.824;9.562;2023-02-26T07:03:02;1.50;;;0.65;;
12425;SDS011;6277;49.824;9.562;2023-02-26T07:05:28;2.75;;;0.90;;
12425;SDS011;6277;49.824;9.562;2023-02-26T07:07:53;2.97;;;0.95;;
12425;SDS011;6277;49.824;9.562;2023-02-26T07:10:19;2.63;;;0.90;;
12425;SDS011;6277;49.824;9.562;2023-02-26T07:12:45;1.98;;;0.80;;
12425;SDS011;6277;49.824;9.562;2023-02-26T07:15:12;1.73;;;0.70;;
12425;SDS011;6277;49.824;9.562;2023-02-26T07:17:38;1.65;;;0.93;;
12425;SDS011;6277;49.824;9.562;2023-02-26T07:20:04;2.45;;;0.63;;
12425;SDS011;6277;49.824;9.562;2023-02-26T07:22:33;1.35;;;0.73;;
12425;SDS011;6277;49.824;9.562;2023-02-26T07:24:59;2.28;;;0.98;;
12425;SDS011;6277;49.824;9.562;2023-02-26T07:27:25;2.88;;;0.93;;
12425;SDS011;6277;49.824;9.562;2023-02-26T07:29:50;1.67;;;0.80;;
12425;SDS011;6277;49.824;9.562;2023-02-26T07:32:16;2.58;;;0.90;;
12425;SDS011;6277;49.824;9.562;2023-02-26T07:34:41;2.45;;;0.85;;
12425;SDS011;6277;49.824;9.562;2023-02-26T07:37:07;1.30;;;0.73;;
12425;SDS011;6277;49.824;9.562;2023-02-26T07:39:33;1.85;;;0.80;;
12425;SDS011;6277;49.824;9.562;2023-02-26T07:41:58;1.02;;;0.90;;
12425;SDS011;6277;49.824;9.562;2023-02-26T07:44:24;1.90;;;0.80;;
12425;SDS011;6277;49.824;9.562;2023-02-26T07:46:49;1.92;;;0.60;;
12425;SDS011;6277;49.824;9.562;2023-02-26T07:49:15;1.70;;;0.70;;
12425;SDS011;6277;49.824;9.562;2023-02-26T07:51:40;1.90;;;0.77;;
12425;SDS011;6277;49.824;9.562;2023-02-26T07:54:09;2.30;;;0.90;;
12425;SDS011;6277;49.824;9.562;2023-02-26T07:56:38;1.52;;;0.70;;
12425;SDS011;6277;49.824;9.562;2023-02-26T07:59:05;2.53;;;0.95;;
12425;SDS011;6277;49.824;9.562;2023-02-26T08:01:30;2.08;;;1.20;;
12425;SDS011;6277;49.824;9.562;2023-02-26T08:03:56;1.48;;;1.00;;
12425;SDS011;6277;49.824;9.562;2023-02-26T08:06:22;5.28;;;3.67;;
12425;SDS011;6277;49.824;9.562;2023-02-26T08:08:47;14.07;;;9.20;;
12425;SDS011;6277;49.824;9.562;2023-02-26T08:11:13;7.72;;;5.47;;
12425;SDS011;6277;49.824;9.562;2023-02-26T08:13:38;4.68;;;3.70;;
12425;SDS011;6277;49.824;9.562;2023-02-26T08:16:04;3.00;;;2.42;;
12425;SDS011;6277;49.824;9.562;2023-02-26T08:18:29;4.45;;;2.00;;
12425;SDS011;6277;49.824;9.562;2023-02-26T08:20:55;2.75;;;1.40;;
12425;SDS011;6277;49.824;9.562;2023-02-26T08:23:20;1.67;;;0.98;;
12425;SDS011;6277;49.824;9.562;2023-02-26T08:25:46;1.58;;;0.95;;
12425;SDS011;6277;49.824;9.562;2023-02-26T08:28:13;1.50;;;0.60;;
12425;SDS011;6277;49.824;9.562;2023-02-26T08:30:38;1.20;;;0.65;;
12425;SDS011;6277;49.824;9.562;2023-02-26T08:33:04;1.02;;;0.60;;
12425;SDS011;6277;49.824;9.562;2023-02-26T08:35:30;2.15;;;0.60;;
12425;SDS011;6277;49.824;9.562;2023-02-26T08:37:55;2.85;;;2.05;;
12425;SDS011;6277;49.824;9.562;2023-02-26T08:40:21;1.25;;;1.15;;
12425;SDS011;6277;49.824;9.562;2023-02-26T08:42:46;1.00;;;0.80;;
12425;SDS011;6277;49.824;9.562;2023-02-26T08:45:12;0.80;;;0.60;;
12425;SDS011;6277;49.824;9.562;2023-02-26T08:47:38;0.88;;;0.60;;
12425;SDS011;6277;49.824;9.562;2023-02-26T08:50:08;1.40;;;0.70;;
12425;SDS011;6277;49.824;9.562;2023-02-26T08:52:34;0.88;;;0.57;;
12425;SDS011;6277;49.824;9.562;2023-02-26T08:55:00;1.55;;;0.60;;
12425;SDS011;6277;49.824;9.562;2023-02-26T08:57:25;1.67;;;0.50;;
12425;SDS011;6277;49.824;9.562;2023-02-26T08:59:51;0.77;;;0.40;;
12425;SDS011;6277;49.824;9.562;2023-02-26T09:02:17;0.90;;;0.52;;
12425;SDS011;6277;49.824;9.562;2023-02-26T09:04:42;2.78;;;0.40;;
12425;SDS011;6277;49.824;9.562;2023-02-26T09:07:08;0.52;;;0.45;;
12425;SDS011;6277;49.824;9.562;2023-02-26T09:09:33;1.20;;;0.40;;
12425;SDS011;6277;49.824;9.562;2023-02-26T09:11:59;2.67;;;2.03;;
12425;SDS011;6277;49.824;9.562;2023-02-26T09:14:24;1.65;;;1.08;;
12425;SDS011;6277;49.824;9.562;2023-02-26T09:16:50;1.38;;;0.68;;
12425;SDS011;6277;49.824;9.562;2023-02-26T09:19:16;2.35;;;0.80;;
12425;SDS011;6277;49.824;9.562;2023-02-26T09:21:41;1.02;;;0.60;;
12425;SDS011;6277;49.824;9.562;2023-02-26T09:24:08;0.95;;;0.70;;
12425;SDS011;6277;49.824;9.562;2023-02-26T09:26:34;0.85;;;0.50;;
12425;SDS011;6277;49.824;9.562;2023-02-26T09:28:59;1.42;;;0.60;;
12425;SDS011;6277;49.824;9.562;2023-02-26T09:31:25;1.40;;;0.60;;
12425;SDS011;6277;49.824;9.562;2023-02-26T09:33:52;1.75;;;1.00;;
12425;SDS011;6277;49.824;9.562;2023-02-26T09:36:17;2.30;;;1.30;;
12425;SDS011;6277;49.824;9.562;2023-02-26T09:38:43;1.20;;;0.65;;
12425;SDS011;6277;49.824;9.562;2023-02-26T09:41:18;1.30;;;0.85;;
12425;SDS011;6277;49.824;9.562;2023-02-26T09:49:18;1.67;;;0.80;;
12425;SDS011;6277;49.824;9.562;2023-02-26T09:52:11;0.50;;;0.40;;
12425;SDS011;6277;49.824;9.562;2023-02-26T09:54:57;1.05;;;0.32;;
12425;SDS011;6277;49.824;9.562;2023-02-26T09:57:29;0.80;;;0.40;;
12425;SDS011;6277;49.824;9.562;2023-02-26T09:59:56;0.47;;;0.30;;
12425;SDS011;6277;49.824;9.562;2023-02-26T10:02:32;1.10;;;0.30;;
12425;SDS011;6277;49.824;9.562;2023-02-26T10:05:15;1.45;;;0.22;;
12425;SDS011;6277;49.824;9.562;2023-02-26T10:07:50;0.60;;;0.30;;
12425;SDS011;6277;49.824;9.562;2023-02-26T10:13:22;0.82;;;0.30;;
12425;SDS011;6277;49.824;9.562;2023-02-26T10:15:59;1.30;;;0.50;;
12425;SDS011;6277;49.824;9.562;2023-02-26T10:18:30;1.13;;;0.38;;
12425;SDS011;6277;49.824;9.562;2023-02-26T10:23:43;0.77;;;0.30;;
12425;SDS011;6277;49.824;9.562;2023-02-26T10:37:02;1.40;;;0.25;;
12425;SDS011;6277;49.824;9.562;2023-02-26T10:39:31;1.10;;;0.38;;
12425;SDS011;6277;49.824;9.562;2023-02-26T10:42:02;0.52;;;0.30;;
12425;SDS011;6277;49.824;9.562;2023-02-26T10:44:43;0.85;;;0.40;;
12425;SDS011;6277;49.824;9.562;2023-02-26T10:48:00;0.28;;;0.20;;
12425;SDS011;6277;49.824;9.562;2023-02-26T10:50:04;0.90;;;0.30;;
12425;SDS011;6277;49.824;9.562;2023-02-26T10:52:33;0.95;;;0.55;;
12425;SDS011;6277;49.824;9.562;2023-02-26T10:57:49;0.32;;;0.30;;
12425;SDS011;6277;49.824;9.562;2023-02-26T11:00:24;0.50;;;0.28;;
12425;SDS011;6277;49.824;9.562;2023-02-26T11:02:49;0.90;;;0.40;;
12425;SDS011;6277;49.824;9.562;2023-02-26T11:05:25;2.45;;;0.52;;
12425;SDS011;6277;49.824;9.562;2023-02-26T11:07:54;2.08;;;0.40;;
12425;SDS011;6277;49.824;9.562;2023-02-26T11:10:24;1.60;;;0.80;;
12425;SDS011;6277;49.824;9.562;2023-02-26T11:12:59;0.98;;;0.30;;
12425;SDS011;6277;49.824;9.562;2023-02-26T11:15:25;0.65;;;0.20;;
12425;SDS011;6277;49.824;9.562;2023-02-26T11:17:55;1.70;;;0.50;;
12425;SDS011;6277;49.824;9.562;2023-02-26T11:23:09;1.58;;;0.30;;
12425;SDS011;6277;49.824;9.562;2023-02-26T11:25:37;0.40;;;0.20;;
12425;SDS011;6277;49.824;9.562;2023-02-26T11:28:04;0.20;;;0.20;;
12425;SDS011;6277;49.824;9.562;2023-02-26T11:30:34;1.35;;;0.20;;
12425;SDS011;6277;49.824;9.562;2023-02-26T11:33:13;0.65;;;0.30;;
12425;SDS011;6277;49.824;9.562;2023-02-26T11:35:42;0.30;;;0.20;;
12425;SDS011;6277;49.824;9.562;2023-02-26T11:38:13;0.80;;;0.38;;
12425;SDS011;6277;49.824;9.562;2023-02-26T11:40:44;0.80;;;0.30;;
12425;SDS011;6277;49.824;9.562;2023-02-26T11:43:16;0.52;;;0.30;;
12425;SDS011;6277;49.824;9.562;2023-02-26T11:45:44;0.70;;;0.30;;
12425;SDS011;6277;49.824;9.562;2023-02-26T11:48:24;0.40;;;0.30;;
12425;SDS011;6277;49.824;9.562;2023-02-26T11:51:02;0.50;;;0.30;;
12425;SDS011;6277;49.824;9.562;2023-02-26T11:56:03;0.50;;;0.30;;
12425;SDS011;6277;49.824;9.562;2023-02-26T11:58:36;0.70;;;0.40;;
12425;SDS011;6277;49.824;9.562;2023-02-26T12:01:03;0.85;;;0.50;;
12425;SDS011;6277;49.824;9.562;2023-02-26T12:03:32;0.35;;;0.30;;
12425;SDS011;6277;49.824;9.562;2023-02-26T12:06:04;0.52;;;0.30;;
12425;SDS011;6277;49.824;9.562;2023-02-26T12:08:31;1.30;;;0.40;;
12425;SDS011;6277;49.824;9.562;2023-02-26T12:14:03;0.73;;;0.30;;
12425;SDS011;6277;49.824;9.562;2023-02-26T12:19:35;0.63;;;0.40;;
12425;SDS011;6277;49.824;9.562;2023-02-26T12:25:31;0.45;;;0.20;;
12425;SDS011;6277;49.824;9.562;2023-02-26T12:28:02;0.60;;;0.40;;
12425;SDS011;6277;49.824;9.562;2023-02-26T12:33:46;0.38;;;0.30;;
12425;SDS011;6277;49.824;9.562;2023-02-26T12:49:49;0.38;;;0.25;;
12425;SDS011;6277;49.824;9.562;2023-02-26T12:55:41;2.05;;;0.30;;
12425;SDS011;6277;49.824;9.562;2023-02-26T13:09:27;0.40;;;0.20;;
12425;SDS011;6277;49.824;9.562;2023-02-26T13:12:16;0.73;;;0.25;;
12425;SDS011;6277;49.824;9.562;2023-02-26T13:18:13;1.20;;;0.40;;
12425;SDS011;6277;49.824;9.562;2023-02-26T13:21:00;0.28;;;0.20;;
12425;SDS011;6277;49.824;9.562;2023-02-26T13:23:35;1.00;;;0.50;;
12425;SDS011;6277;49.824;9.562;2023-02-26T13:26:07;0.80;;;0.50;;
12425;SDS011;6277;49.824;9.562;2023-02-26T13:28:39;0.47;;;0.30;;
12425;SDS011;6277;49.824;9.562;2023-02-26T13:31:13;0.50;;;0.28;;
12425;SDS011;6277;49.824;9.562;2023-02-26T13:33:40;0.30;;;0.20;;
12425;SDS011;6277;49.824;9.562;2023-02-26T13:36:07;1.33;;;0.40;;
12425;SDS011;6277;49.824;9.562;2023-02-26T13:38:40;0.40;;;0.20;;
12425;SDS011;6277;49.824;9.562;2023-02-26T13:52:29;1.10;;;0.50;;
12425;SDS011;6277;49.824;9.562;2023-02-26T13:54:56;1.02;;;0.38;;
12425;SDS011;6277;49.824;9.562;2023-02-26T13:57:36;0.30;;;0.20;;
12425;SDS011;6277;49.824;9.562;2023-02-26T14:03:10;0.90;;;0.40;;
12425;SDS011;6277;49.824;9.562;2023-02-26T14:11:03;0.32;;;0.20;;
12425;SDS011;6277;49.824;9.562;2023-02-26T14:16:39;0.25;;;0.25;;
12425;SDS011;6277;49.824;9.562;2023-02-26T14:21:38;0.50;;;0.30;;
12425;SDS011;6277;49.824;9.562;2023-02-26T14:24:18;0.32;;;0.20;;
12425;SDS011;6277;49.824;9.562;2023-02-26T14:26:48;0.20;;;0.20;;
12425;SDS011;6277;49.824;9.562;2023-02-26T14:29:20;0.57;;;0.30;;
12425;SDS011;6277;49.824;9.562;2023-02-26T14:34:25;0.45;;;0.22;;
12425;SDS011;6277;49.824;9.562;2023-02-26T14:36:55;0.90;;;0.30;;
12425;SDS011;6277;49.824;9.562;2023-02-26T14:41:56;1.73;;;0.50;;
12425;SDS011;6277;49.824;9.562;2023-02-26T14:44:33;2.17;;;0.40;;
12425;SDS011;6277;49.824;9.562;2023-02-26T14:47:02;0.30;;;0.30;;
12425;SDS011;6277;49.824;9.562;2023-02-26T14:49:32;2.38;;;1.38;;
12425;SDS011;6277;49.824;9.562;2023-02-26T14:57:21;1.35;;;0.70;;
12425;SDS011;6277;49.824;9.562;2023-02-26T15:00:17;0.80;;;0.60;;
12425;SDS011;6277;49.824;9.562;2023-02-26T15:05:44;0.82;;;0.60;;
12425;SDS011;6277;49.824;9.562;2023-02-26T15:16:29;0.88;;;0.35;;
12425;SDS011;6277;49.824;9.562;2023-02-26T15:24:58;0.90;;;0.30;;
12425;SDS011;6277;49.824;9.562;2023-02-26T15:27:25;0.30;;;0.30;;
12425;SDS011;6277;49.824;9.562;2023-02-26T15:29:55;1.65;;;0.25;;
12425;SDS011;6277;49.824;9.562;2023-02-26T15:32:22;0.80;;;0.30;;
12425;SDS011;6277;49.824;9.562;2023-02-26T15:34:54;0.95;;;0.20;;
12425;SDS011;6277;49.824;9.562;2023-02-26T15:37:26;0.60;;;0.30;;
12425;SDS011;6277;49.824;9.562;2023-02-26T15:39:54;0.38;;;0.20;;
12425;SDS011;6277;49.824;9.562;2023-02-26T15:42:20;0.45;;;0.20;;
12425;SDS011;6277;49.824;9.562;2023-02-26T15:44:51;0.57;;;0.20;;
12425;SDS011;6277;49.824;9.562;2023-02-26T15:47:18;0.88;;;0.40;;
12425;SDS011;6277;49.824;9.562;2023-02-26T15:49:45;1.30;;;0.28;;
12425;SDS011;6277;49.824;9.562;2023-02-26T15:52:16;0.45;;;0.32;;
12425;SDS011;6277;49.824;9.562;2023-02-26T15:54:46;0.50;;;0.20;;
12425;SDS011;6277;49.824;9.562;2023-02-26T15:57:31;1.15;;;0.30;;
12425;SDS011;6277;49.824;9.562;2023-02-26T16:00:00;1.00;;;0.30;;
12425;SDS011;6277;49.824;9.562;2023-02-26T16:02:32;0.47;;;0.30;;
12425;SDS011;6277;49.824;9.562;2023-02-26T16:04:57;0.73;;;0.30;;
12425;SDS011;6277;49.824;9.562;2023-02-26T16:07:25;0.60;;;0.30;;
12425;SDS011;6277;49.824;9.562;2023-02-26T16:09:51;0.65;;;0.20;;
12425;SDS011;6277;49.824;9.562;2023-02-26T16:15:03;0.50;;;0.20;;
12425;SDS011;6277;49.824;9.562;2023-02-26T16:17:38;0.40;;;0.30;;
12425;SDS011;6277;49.824;9.562;2023-02-26T16:20:11;0.57;;;0.30;;
12425;SDS011;6277;49.824;9.562;2023-02-26T16:22:47;0.68;;;0.30;;
12425;SDS011;6277;49.824;9.562;2023-02-26T16:25:34;0.93;;;0.20;;
12425;SDS011;6277;49.824;9.562;2023-02-26T16:28:04;1.27;;;0.35;;
12425;SDS011;6277;49.824;9.562;2023-02-26T16:30:43;2.08;;;0.50;;
12425;SDS011;6277;49.824;9.562;2023-02-26T16:33:13;0.93;;;0.30;;
12425;SDS011;6277;49.824;9.562;2023-02-26T16:35:47;0.50;;;0.30;;
12425;SDS011;6277;49.824;9.562;2023-02-26T16:38:22;1.50;;;0.30;;
12425;SDS011;6277;49.824;9.562;2023-02-26T16:40:56;0.70;;;0.40;;
12425;SDS011;6277;49.824;9.562;2023-02-26T16:46:00;1.27;;;0.50;;
12425;SDS011;6277;49.824;9.562;2023-02-26T16:48:29;1.05;;;0.43;;
12425;SDS011;6277;49.824;9.562;2023-02-26T16:51:00;1.02;;;0.50;;
12425;SDS011;6277;49.824;9.562;2023-02-26T16:53:42;0.50;;;0.35;;
12425;SDS011;6277;49.824;9.562;2023-02-26T16:56:13;1.67;;;0.60;;
12425;SDS011;6277;49.824;9.562;2023-02-26T16:58:46;0.52;;;0.25;;
12425;SDS011;6277;49.824;9.562;2023-02-26T17:01:16;0.82;;;0.38;;
12425;SDS011;6277;49.824;9.562;2023-02-26T17:03:47;0.60;;;0.30;;
12425;SDS011;6277;49.824;9.562;2023-02-26T17:06:19;0.50;;;0.40;;
12425;SDS011;6277;49.824;9.562;2023-02-26T17:08:51;1.67;;;0.55;;
12425;SDS011;6277;49.824;9.562;2023-02-26T17:11:22;1.05;;;0.50;;
12425;SDS011;6277;49.824;9.562;2023-02-26T17:14:13;0.98;;;0.38;;
12425;SDS011;6277;49.824;9.562;2023-02-26T17:16:46;1.40;;;0.40;;
12425;SDS011;6277;49.824;9.562;2023-02-26T17:19:12;1.30;;;0.40;;
12425;SDS011;6277;49.824;9.562;2023-02-26T17:24:19;0.98;;;0.40;;
12425;SDS011;6277;49.824;9.562;2023-02-26T17:26:48;1.27;;;0.43;;
12425;SDS011;6277;49.824;9.562;2023-02-26T17:29:16;0.55;;;0.30;;
12425;SDS011;6277;49.824;9.562;2023-02-26T17:31:44;1.10;;;0.32;;
12425;SDS011;6277;49.824;9.562;2023-02-26T17:34:10;0.57;;;0.40;;
12425;SDS011;6277;49.824;9.562;2023-02-26T17:36:36;0.47;;;0.28;;
12425;SDS011;6277;49.824;9.562;2023-02-26T17:39:02;1.17;;;0.43;;
12425;SDS011;6277;49.824;9.562;2023-02-26T17:41:28;1.00;;;0.40;;
12425;SDS011;6277;49.824;9.562;2023-02-26T17:43:54;0.60;;;0.40;;
12425;SDS011;6277;49.824;9.562;2023-02-26T17:46:20;1.75;;;0.60;;
12425;SDS011;6277;49.824;9.562;2023-02-26T17:48:46;2.10;;;0.60;;
12425;SDS011;6277;49.824;9.562;2023-02-26T17:51:11;2.17;;;0.60;;
12425;SDS011;6277;49.824;9.562;2023-02-26T17:53:38;2.55;;;0.47;;
12425;SDS011;6277;49.824;9.562;2023-02-26T17:56:18;2.28;;;0.60;;
12425;SDS011;6277;49.824;9.562;2023-02-26T17:58:49;0.90;;;0.40;;
12425;SDS011;6277;49.824;9.562;2023-02-26T18:01:16;1.15;;;0.57;;
12425;SDS011;6277;49.824;9.562;2023-02-26T18:03:41;1.60;;;0.68;;
12425;SDS011;6277;49.824;9.562;2023-02-26T18:06:08;1.27;;;0.60;;
12425;SDS011;6277;49.824;9.562;2023-02-26T18:08:37;1.90;;;0.52;;
12425;SDS011;6277;49.824;9.562;2023-02-26T18:11:04;1.98;;;0.60;;
12425;SDS011;6277;49.824;9.562;2023-02-26T18:13:31;0.60;;;0.43;;